sensor_id;sensor_type;location;lat;lon;timestamp;P1;durP1;ratioP1;P2;durP2;ratioP2
18387;SDS011;9320;50.256;19.026;2022-10-17T00:00:31;40.97;;;21.57;;
18387;SDS011;9320;50.256;19.026;2022-10-17T00:03:00;39.97;;;22.98;;
18387;SDS011;9320;50.256;19.026;2022-10-17T00:05:28;40.75;;;22.15;;
18387;SDS011;9320;50.256;19.026;2022-10-17T00:07:56;40.72;;;21.95;;
18387;SDS011;9320;50.256;19.026;2022-10-17T00:10:24;35.00;;;21.23;;
18387;SDS011;9320;50.256;19.026;2022-10-17T00:12:53;36.80;;;21.83;;
18387;SDS011;9320;50.256;19.026;2022-10-17T00:15:21;39.90;;;22.67;;
18387;SDS011;9320;50.256;19.026;2022-10-17T00:17:49;36.67;;;21.57;;
18387;SDS011;9320;50.256;19.026;2022-10-17T00:20:17;36.70;;;21.47;;
18387;SDS011;9320;50.256;19.026;2022-10-17T00:22:45;58.25;;;23.88;;
18387;SDS011;9320;50.256;19.026;2022-10-17T00:25:13;44.35;;;23.10;;
18387;SDS011;9320;50.256;19.026;2022-10-17T00:27:41;37.75;;;22.17;;
18387;SDS011;9320;50.256;19.026;2022-10-17T00:30:13;45.50;;;22.67;;
18387;SDS011;9320;50.256;19.026;2022-10-17T00:32:42;38.67;;;21.80;;
18387;SDS011;9320;50.256;19.026;2022-10-17T00:35:10;40.53;;;21.87;;
18387;SDS011;9320;50.256;19.026;2022-10-17T00:37:38;37.30;;;21.03;;
18387;SDS011;9320;50.256;19.026;2022-10-17T00:40:06;36.37;;;21.23;;
18387;SDS011;9320;50.256;19.026;2022-10-17T00:42:35;36.33;;;20.57;;
18387;SDS011;9320;50.256;19.026;2022-10-17T00:47:53;38.33;;;20.83;;
18387;SDS011;9320;50.256;19.026;2022-10-17T00:50:25;35.83;;;20.10;;
18387;SDS011;9320;50.256;19.026;2022-10-17T00:52:54;39.10;;;20.63;;
18387;SDS011;9320;50.256;19.026;2022-10-17T00:55:24;35.43;;;20.03;;
18387;SDS011;9320;50.256;19.026;2022-10-17T00:57:56;37.80;;;20.70;;
18387;SDS011;9320;50.256;19.026;2022-10-17T01:00:28;35.73;;;21.17;;
18387;SDS011;9320;50.256;19.026;2022-10-17T01:02:56;37.57;;;21.57;;
18387;SDS011;9320;50.256;19.026;2022-10-17T01:05:24;35.67;;;20.63;;
18387;SDS011;9320;50.256;19.026;2022-10-17T01:07:52;33.57;;;19.53;;
18387;SDS011;9320;50.256;19.026;2022-10-17T01:10:21;40.03;;;21.00;;
18387;SDS011;9320;50.256;19.026;2022-10-17T01:12:59;37.37;;;20.13;;
18387;SDS011;9320;50.256;19.026;2022-10-17T01:15:42;38.97;;;21.00;;
18387;SDS011;9320;50.256;19.026;2022-10-17T01:18:23;33.57;;;19.73;;
18387;SDS011;9320;50.256;19.026;2022-10-17T01:21:06;36.40;;;20.63;;
18387;SDS011;9320;50.256;19.026;2022-10-17T01:23:59;33.97;;;18.97;;
18387;SDS011;9320;50.256;19.026;2022-10-17T01:33:18;34.73;;;19.20;;
18387;SDS011;9320;50.256;19.026;2022-10-17T01:35:55;33.73;;;19.33;;
18387;SDS011;9320;50.256;19.026;2022-10-17T01:38:31;30.00;;;17.10;;
18387;SDS011;9320;50.256;19.026;2022-10-17T01:41:02;32.40;;;18.07;;
18387;SDS011;9320;50.256;19.026;2022-10-17T01:43:36;34.10;;;19.10;;
18387;SDS011;9320;50.256;19.026;2022-10-17T01:46:09;33.47;;;20.10;;
18387;SDS011;9320;50.256;19.026;2022-10-17T01:48:43;34.37;;;19.87;;
18387;SDS011;9320;50.256;19.026;2022-10-17T01:51:15;34.93;;;19.27;;
18387;SDS011;9320;50.256;19.026;2022-10-17T01:53:48;33.03;;;19.53;;
18387;SDS011;9320;50.256;19.026;2022-10-17T01:56:19;34.87;;;19.20;;
18387;SDS011;9320;50.256;19.026;2022-10-17T01:58:51;33.97;;;18.57;;
18387;SDS011;9320;50.256;19.026;2022-10-17T02:01:22;36.57;;;19.00;;
18387;SDS011;9320;50.256;19.026;2022-10-17T02:03:54;31.33;;;19.00;;
18387;SDS011;9320;50.256;19.026;2022-10-17T02:06:23;34.33;;;18.50;;
18387;SDS011;9320;50.256;19.026;2022-10-17T02:08:51;32.67;;;18.40;;
18387;SDS011;9320;50.256;19.026;2022-10-17T02:11:20;30.33;;;18.27;;
18387;SDS011;9320;50.256;19.026;2022-10-17T02:13:57;29.97;;;18.33;;
18387;SDS011;9320;50.256;19.026;2022-10-17T02:16:40;32.33;;;18.17;;
18387;SDS011;9320;50.256;19.026;2022-10-17T02:22:08;26.97;;;17.07;;
18387;SDS011;9320;50.256;19.026;2022-10-17T02:24:44;27.37;;;15.73;;
18387;SDS011;9320;50.256;19.026;2022-10-17T02:27:17;29.70;;;17.67;;
18387;SDS011;9320;50.256;19.026;2022-10-17T02:29:55;30.50;;;17.40;;
18387;SDS011;9320;50.256;19.026;2022-10-17T02:32:27;30.60;;;17.97;;
18387;SDS011;9320;50.256;19.026;2022-10-17T02:35:03;32.43;;;17.20;;
18387;SDS011;9320;50.256;19.026;2022-10-17T02:37:35;30.63;;;17.67;;
18387;SDS011;9320;50.256;19.026;2022-10-17T02:40:04;30.37;;;17.27;;
18387;SDS011;9320;50.256;19.026;2022-10-17T02:42:35;27.07;;;16.63;;
18387;SDS011;9320;50.256;19.026;2022-10-17T02:45:05;32.23;;;18.77;;
18387;SDS011;9320;50.256;19.026;2022-10-17T02:47:35;30.53;;;18.13;;
18387;SDS011;9320;50.256;19.026;2022-10-17T02:50:10;30.37;;;18.13;;
18387;SDS011;9320;50.256;19.026;2022-10-17T02:52:39;28.27;;;16.73;;
18387;SDS011;9320;50.256;19.026;2022-10-17T02:55:16;28.73;;;16.80;;
18387;SDS011;9320;50.256;19.026;2022-10-17T02:57:47;29.90;;;16.50;;
18387;SDS011;9320;50.256;19.026;2022-10-17T03:00:18;29.33;;;16.27;;
18387;SDS011;9320;50.256;19.026;2022-10-17T03:02:48;30.70;;;17.57;;
18387;SDS011;9320;50.256;19.026;2022-10-17T03:05:19;28.70;;;16.87;;
18387;SDS011;9320;50.256;19.026;2022-10-17T03:07:48;29.67;;;18.53;;
18387;SDS011;9320;50.256;19.026;2022-10-17T03:10:17;32.33;;;18.40;;
18387;SDS011;9320;50.256;19.026;2022-10-17T03:12:45;30.13;;;16.97;;
18387;SDS011;9320;50.256;19.026;2022-10-17T03:15:13;30.83;;;17.37;;
18387;SDS011;9320;50.256;19.026;2022-10-17T03:17:41;28.87;;;16.57;;
18387;SDS011;9320;50.256;19.026;2022-10-17T03:20:10;33.17;;;17.53;;
18387;SDS011;9320;50.256;19.026;2022-10-17T03:22:40;29.77;;;17.27;;
18387;SDS011;9320;50.256;19.026;2022-10-17T03:25:08;30.37;;;17.63;;
18387;SDS011;9320;50.256;19.026;2022-10-17T03:27:35;32.27;;;17.63;;
18387;SDS011;9320;50.256;19.026;2022-10-17T03:30:04;30.87;;;17.23;;
18387;SDS011;9320;50.256;19.026;2022-10-17T03:32:33;31.77;;;17.57;;
18387;SDS011;9320;50.256;19.026;2022-10-17T03:35:01;34.33;;;16.77;;
18387;SDS011;9320;50.256;19.026;2022-10-17T03:37:29;35.50;;;17.60;;
18387;SDS011;9320;50.256;19.026;2022-10-17T03:39:59;30.93;;;17.77;;
18387;SDS011;9320;50.256;19.026;2022-10-17T03:42:27;32.77;;;17.63;;
18387;SDS011;9320;50.256;19.026;2022-10-17T03:44:55;30.23;;;17.67;;
18387;SDS011;9320;50.256;19.026;2022-10-17T03:47:23;29.90;;;17.47;;
18387;SDS011;9320;50.256;19.026;2022-10-17T03:49:51;28.97;;;17.37;;
18387;SDS011;9320;50.256;19.026;2022-10-17T03:52:19;29.37;;;16.93;;
18387;SDS011;9320;50.256;19.026;2022-10-17T03:54:48;31.70;;;18.27;;
18387;SDS011;9320;50.256;19.026;2022-10-17T03:57:18;31.47;;;17.13;;
18387;SDS011;9320;50.256;19.026;2022-10-17T03:59:46;32.47;;;17.73;;
18387;SDS011;9320;50.256;19.026;2022-10-17T04:02:14;34.40;;;19.03;;
18387;SDS011;9320;50.256;19.026;2022-10-17T04:04:42;28.50;;;18.20;;
18387;SDS011;9320;50.256;19.026;2022-10-17T04:07:10;34.20;;;19.43;;
18387;SDS011;9320;50.256;19.026;2022-10-17T04:09:37;31.27;;;18.97;;
18387;SDS011;9320;50.256;19.026;2022-10-17T04:12:05;34.47;;;18.07;;
18387;SDS011;9320;50.256;19.026;2022-10-17T04:14:35;33.70;;;19.30;;
18387;SDS011;9320;50.256;19.026;2022-10-17T04:17:03;32.33;;;18.30;;
18387;SDS011;9320;50.256;19.026;2022-10-17T04:19:32;31.63;;;18.47;;
18387;SDS011;9320;50.256;19.026;2022-10-17T04:22:00;33.47;;;17.80;;
18387;SDS011;9320;50.256;19.026;2022-10-17T04:24:29;32.40;;;17.80;;
18387;SDS011;9320;50.256;19.026;2022-10-17T04:26:57;34.93;;;17.60;;
18387;SDS011;9320;50.256;19.026;2022-10-17T04:29:25;31.00;;;17.97;;
18387;SDS011;9320;50.256;19.026;2022-10-17T04:31:55;33.43;;;17.23;;
18387;SDS011;9320;50.256;19.026;2022-10-17T04:34:23;31.87;;;17.87;;
18387;SDS011;9320;50.256;19.026;2022-10-17T04:36:51;31.60;;;18.07;;
18387;SDS011;9320;50.256;19.026;2022-10-17T04:39:19;33.03;;;18.00;;
18387;SDS011;9320;50.256;19.026;2022-10-17T04:41:47;31.70;;;17.57;;
18387;SDS011;9320;50.256;19.026;2022-10-17T04:44:15;32.40;;;17.20;;
18387;SDS011;9320;50.256;19.026;2022-10-17T04:46:43;34.87;;;17.43;;
18387;SDS011;9320;50.256;19.026;2022-10-17T04:49:12;29.77;;;17.50;;
18387;SDS011;9320;50.256;19.026;2022-10-17T04:51:40;28.37;;;16.53;;
18387;SDS011;9320;50.256;19.026;2022-10-17T04:54:08;34.77;;;17.07;;
18387;SDS011;9320;50.256;19.026;2022-10-17T04:56:36;34.50;;;18.20;;
18387;SDS011;9320;50.256;19.026;2022-10-17T04:59:04;29.60;;;16.90;;
18387;SDS011;9320;50.256;19.026;2022-10-17T05:01:32;30.57;;;17.70;;
18387;SDS011;9320;50.256;19.026;2022-10-17T05:04:00;33.63;;;17.03;;
18387;SDS011;9320;50.256;19.026;2022-10-17T05:06:29;32.97;;;17.80;;
18387;SDS011;9320;50.256;19.026;2022-10-17T05:08:58;33.13;;;18.03;;
18387;SDS011;9320;50.256;19.026;2022-10-17T05:11:27;30.50;;;17.97;;
18387;SDS011;9320;50.256;19.026;2022-10-17T05:13:56;36.40;;;20.37;;
18387;SDS011;9320;50.256;19.026;2022-10-17T05:16:25;30.27;;;17.77;;
18387;SDS011;9320;50.256;19.026;2022-10-17T05:18:56;32.60;;;19.30;;
18387;SDS011;9320;50.256;19.026;2022-10-17T05:21:25;33.30;;;19.33;;
18387;SDS011;9320;50.256;19.026;2022-10-17T05:23:55;35.43;;;19.43;;
18387;SDS011;9320;50.256;19.026;2022-10-17T05:26:24;29.63;;;18.77;;
18387;SDS011;9320;50.256;19.026;2022-10-17T05:28:52;31.53;;;17.93;;
18387;SDS011;9320;50.256;19.026;2022-10-17T05:31:20;33.50;;;18.23;;
18387;SDS011;9320;50.256;19.026;2022-10-17T05:33:48;34.37;;;17.97;;
18387;SDS011;9320;50.256;19.026;2022-10-17T05:36:16;32.70;;;19.07;;
18387;SDS011;9320;50.256;19.026;2022-10-17T05:38:47;32.07;;;18.30;;
18387;SDS011;9320;50.256;19.026;2022-10-17T05:41:17;31.43;;;17.30;;
18387;SDS011;9320;50.256;19.026;2022-10-17T05:43:46;35.80;;;18.00;;
18387;SDS011;9320;50.256;19.026;2022-10-17T05:46:15;35.10;;;18.47;;
18387;SDS011;9320;50.256;19.026;2022-10-17T05:48:43;33.80;;;19.63;;
18387;SDS011;9320;50.256;19.026;2022-10-17T05:51:12;32.60;;;17.40;;
18387;SDS011;9320;50.256;19.026;2022-10-17T05:53:40;35.90;;;18.17;;
18387;SDS011;9320;50.256;19.026;2022-10-17T05:56:09;34.57;;;19.53;;
18387;SDS011;9320;50.256;19.026;2022-10-17T05:58:41;32.10;;;19.03;;
18387;SDS011;9320;50.256;19.026;2022-10-17T06:01:16;35.03;;;18.83;;
18387;SDS011;9320;50.256;19.026;2022-10-17T06:03:45;33.30;;;18.87;;
18387;SDS011;9320;50.256;19.026;2022-10-17T06:06:13;34.63;;;19.47;;
18387;SDS011;9320;50.256;19.026;2022-10-17T06:08:42;35.23;;;20.50;;
18387;SDS011;9320;50.256;19.026;2022-10-17T06:11:11;35.47;;;19.50;;
18387;SDS011;9320;50.256;19.026;2022-10-17T06:13:40;40.30;;;20.27;;
18387;SDS011;9320;50.256;19.026;2022-10-17T06:16:08;37.70;;;19.13;;
18387;SDS011;9320;50.256;19.026;2022-10-17T06:18:36;35.20;;;18.80;;
18387;SDS011;9320;50.256;19.026;2022-10-17T06:21:05;32.40;;;17.83;;
18387;SDS011;9320;50.256;19.026;2022-10-17T06:23:35;37.90;;;19.10;;
18387;SDS011;9320;50.256;19.026;2022-10-17T06:26:04;34.40;;;19.03;;
18387;SDS011;9320;50.256;19.026;2022-10-17T06:28:33;39.00;;;19.93;;
18387;SDS011;9320;50.256;19.026;2022-10-17T06:31:04;38.30;;;18.83;;
18387;SDS011;9320;50.256;19.026;2022-10-17T06:33:33;35.70;;;18.33;;
18387;SDS011;9320;50.256;19.026;2022-10-17T06:36:02;33.93;;;18.57;;
18387;SDS011;9320;50.256;19.026;2022-10-17T06:38:32;39.80;;;19.60;;
18387;SDS011;9320;50.256;19.026;2022-10-17T06:41:03;33.60;;;18.63;;
18387;SDS011;9320;50.256;19.026;2022-10-17T06:43:33;34.13;;;18.83;;
18387;SDS011;9320;50.256;19.026;2022-10-17T06:46:01;38.07;;;18.70;;
18387;SDS011;9320;50.256;19.026;2022-10-17T06:48:31;36.50;;;19.03;;
18387;SDS011;9320;50.256;19.026;2022-10-17T06:51:00;41.77;;;18.40;;
18387;SDS011;9320;50.256;19.026;2022-10-17T06:53:30;34.33;;;18.63;;
18387;SDS011;9320;50.256;19.026;2022-10-17T06:56:00;38.47;;;20.37;;
18387;SDS011;9320;50.256;19.026;2022-10-17T06:58:29;41.23;;;20.93;;
18387;SDS011;9320;50.256;19.026;2022-10-17T07:00:59;31.13;;;18.20;;
18387;SDS011;9320;50.256;19.026;2022-10-17T07:03:28;35.33;;;19.47;;
18387;SDS011;9320;50.256;19.026;2022-10-17T07:05:58;38.20;;;20.30;;
18387;SDS011;9320;50.256;19.026;2022-10-17T07:08:26;31.23;;;19.07;;
18387;SDS011;9320;50.256;19.026;2022-10-17T07:10:55;37.07;;;19.90;;
18387;SDS011;9320;50.256;19.026;2022-10-17T07:13:23;36.20;;;20.23;;
18387;SDS011;9320;50.256;19.026;2022-10-17T07:15:51;29.90;;;18.57;;
18387;SDS011;9320;50.256;19.026;2022-10-17T07:18:23;37.77;;;19.80;;
18387;SDS011;9320;50.256;19.026;2022-10-17T07:20:52;41.00;;;18.33;;
18387;SDS011;9320;50.256;19.026;2022-10-17T07:23:21;30.93;;;16.83;;
18387;SDS011;9320;50.256;19.026;2022-10-17T07:25:50;29.77;;;16.83;;
18387;SDS011;9320;50.256;19.026;2022-10-17T07:28:18;26.63;;;15.23;;
18387;SDS011;9320;50.256;19.026;2022-10-17T07:30:47;28.13;;;16.03;;
18387;SDS011;9320;50.256;19.026;2022-10-17T07:33:19;28.23;;;15.93;;
18387;SDS011;9320;50.256;19.026;2022-10-17T07:35:47;26.87;;;15.93;;
18387;SDS011;9320;50.256;19.026;2022-10-17T07:38:17;29.40;;;15.93;;
18387;SDS011;9320;50.256;19.026;2022-10-17T07:40:53;26.27;;;15.73;;
18387;SDS011;9320;50.256;19.026;2022-10-17T07:43:22;26.87;;;15.13;;
18387;SDS011;9320;50.256;19.026;2022-10-17T07:45:50;25.33;;;15.00;;
18387;SDS011;9320;50.256;19.026;2022-10-17T07:48:18;28.43;;;16.10;;
18387;SDS011;9320;50.256;19.026;2022-10-17T07:50:47;21.65;;;14.63;;
18387;SDS011;9320;50.256;19.026;2022-10-17T07:53:15;27.77;;;15.20;;
18387;SDS011;9320;50.256;19.026;2022-10-17T07:55:43;31.63;;;15.50;;
18387;SDS011;9320;50.256;19.026;2022-10-17T07:58:14;25.65;;;15.30;;
18387;SDS011;9320;50.256;19.026;2022-10-17T08:00:42;24.07;;;14.90;;
18387;SDS011;9320;50.256;19.026;2022-10-17T08:03:13;22.13;;;14.43;;
18387;SDS011;9320;50.256;19.026;2022-10-17T08:05:41;27.75;;;15.43;;
18387;SDS011;9320;50.256;19.026;2022-10-17T08:08:09;27.30;;;13.98;;
18387;SDS011;9320;50.256;19.026;2022-10-17T08:10:37;26.20;;;14.40;;
18387;SDS011;9320;50.256;19.026;2022-10-17T08:13:05;20.05;;;13.32;;
18387;SDS011;9320;50.256;19.026;2022-10-17T08:15:35;22.20;;;13.17;;
18387;SDS011;9320;50.256;19.026;2022-10-17T08:18:04;23.15;;;13.77;;
18387;SDS011;9320;50.256;19.026;2022-10-17T08:20:32;20.38;;;12.85;;
18387;SDS011;9320;50.256;19.026;2022-10-17T08:23:00;20.75;;;14.18;;
18387;SDS011;9320;50.256;19.026;2022-10-17T08:25:28;21.88;;;13.02;;
18387;SDS011;9320;50.256;19.026;2022-10-17T08:27:57;23.35;;;12.95;;
18387;SDS011;9320;50.256;19.026;2022-10-17T08:30:25;22.10;;;12.90;;
18387;SDS011;9320;50.256;19.026;2022-10-17T08:32:57;20.00;;;12.95;;
18387;SDS011;9320;50.256;19.026;2022-10-17T08:35:25;22.60;;;13.00;;
18387;SDS011;9320;50.256;19.026;2022-10-17T08:37:53;21.67;;;12.30;;
18387;SDS011;9320;50.256;19.026;2022-10-17T08:40:22;29.02;;;14.45;;
18387;SDS011;9320;50.256;19.026;2022-10-17T08:43:08;20.95;;;13.48;;
18387;SDS011;9320;50.256;19.026;2022-10-17T08:45:45;20.80;;;13.35;;
18387;SDS011;9320;50.256;19.026;2022-10-17T08:48:20;23.60;;;13.63;;
18387;SDS011;9320;50.256;19.026;2022-10-17T08:50:52;19.88;;;12.95;;
18387;SDS011;9320;50.256;19.026;2022-10-17T08:53:24;25.88;;;12.80;;
18387;SDS011;9320;50.256;19.026;2022-10-17T08:55:56;18.95;;;13.02;;
18387;SDS011;9320;50.256;19.026;2022-10-17T08:58:34;24.77;;;14.52;;
18387;SDS011;9320;50.256;19.026;2022-10-17T09:01:05;24.27;;;13.48;;
18387;SDS011;9320;50.256;19.026;2022-10-17T09:03:43;20.33;;;13.13;;
18387;SDS011;9320;50.256;19.026;2022-10-17T09:06:18;18.42;;;12.68;;
18387;SDS011;9320;50.256;19.026;2022-10-17T09:08:58;21.92;;;13.65;;
18387;SDS011;9320;50.256;19.026;2022-10-17T09:11:51;22.60;;;13.48;;
18387;SDS011;9320;50.256;19.026;2022-10-17T09:14:42;19.95;;;13.05;;
18387;SDS011;9320;50.256;19.026;2022-10-17T09:17:26;17.85;;;13.18;;
18387;SDS011;9320;50.256;19.026;2022-10-17T09:20:07;19.63;;;12.25;;
18387;SDS011;9320;50.256;19.026;2022-10-17T09:22:40;21.58;;;12.63;;
18387;SDS011;9320;50.256;19.026;2022-10-17T09:25:12;15.75;;;11.50;;
18387;SDS011;9320;50.256;19.026;2022-10-17T09:27:44;20.50;;;12.93;;
18387;SDS011;9320;50.256;19.026;2022-10-17T09:33:12;19.52;;;11.70;;
18387;SDS011;9320;50.256;19.026;2022-10-17T09:36:03;20.10;;;12.60;;
18387;SDS011;9320;50.256;19.026;2022-10-17T09:38:35;24.00;;;12.63;;
18387;SDS011;9320;50.256;19.026;2022-10-17T09:41:08;24.10;;;13.10;;
18387;SDS011;9320;50.256;19.026;2022-10-17T09:44:08;22.05;;;12.45;;
18387;SDS011;9320;50.256;19.026;2022-10-17T09:46:49;19.65;;;13.15;;
18387;SDS011;9320;50.256;19.026;2022-10-17T09:49:30;17.77;;;12.02;;
18387;SDS011;9320;50.256;19.026;2022-10-17T09:52:02;19.42;;;11.80;;
18387;SDS011;9320;50.256;19.026;2022-10-17T09:54:39;21.15;;;12.57;;
18387;SDS011;9320;50.256;19.026;2022-10-17T09:57:09;17.10;;;11.43;;
18387;SDS011;9320;50.256;19.026;2022-10-17T09:59:40;23.95;;;11.55;;
18387;SDS011;9320;50.256;19.026;2022-10-17T10:02:19;16.75;;;11.10;;
18387;SDS011;9320;50.256;19.026;2022-10-17T10:04:50;16.70;;;10.88;;
18387;SDS011;9320;50.256;19.026;2022-10-17T10:07:34;16.58;;;10.80;;
18387;SDS011;9320;50.256;19.026;2022-10-17T10:10:04;15.95;;;10.90;;
18387;SDS011;9320;50.256;19.026;2022-10-17T10:12:35;14.60;;;10.25;;
18387;SDS011;9320;50.256;19.026;2022-10-17T10:17:57;13.65;;;9.55;;
18387;SDS011;9320;50.256;19.026;2022-10-17T10:20:27;15.48;;;10.40;;
18387;SDS011;9320;50.256;19.026;2022-10-17T10:23:05;15.48;;;10.63;;
18387;SDS011;9320;50.256;19.026;2022-10-17T10:25:34;14.85;;;10.13;;
18387;SDS011;9320;50.256;19.026;2022-10-17T10:28:08;15.63;;;11.02;;
18387;SDS011;9320;50.256;19.026;2022-10-17T10:30:37;14.35;;;10.55;;
18387;SDS011;9320;50.256;19.026;2022-10-17T10:33:05;16.60;;;10.30;;
18387;SDS011;9320;50.256;19.026;2022-10-17T10:35:37;14.75;;;10.35;;
18387;SDS011;9320;50.256;19.026;2022-10-17T10:38:09;16.35;;;10.32;;
18387;SDS011;9320;50.256;19.026;2022-10-17T10:40:43;18.52;;;10.45;;
18387;SDS011;9320;50.256;19.026;2022-10-17T10:43:20;15.60;;;10.65;;
18387;SDS011;9320;50.256;19.026;2022-10-17T10:45:56;14.90;;;11.05;;
18387;SDS011;9320;50.256;19.026;2022-10-17T10:48:25;14.93;;;9.95;;
18387;SDS011;9320;50.256;19.026;2022-10-17T10:50:55;14.85;;;10.32;;
18387;SDS011;9320;50.256;19.026;2022-10-17T10:53:31;16.00;;;9.75;;
18387;SDS011;9320;50.256;19.026;2022-10-17T10:56:04;16.38;;;10.82;;
18387;SDS011;9320;50.256;19.026;2022-10-17T10:58:40;16.40;;;10.80;;
18387;SDS011;9320;50.256;19.026;2022-10-17T11:01:22;12.23;;;9.65;;
18387;SDS011;9320;50.256;19.026;2022-10-17T11:03:58;15.57;;;9.63;;
18387;SDS011;9320;50.256;19.026;2022-10-17T11:06:35;13.40;;;9.68;;
18387;SDS011;9320;50.256;19.026;2022-10-17T11:09:25;13.70;;;9.35;;
18387;SDS011;9320;50.256;19.026;2022-10-17T11:12:01;15.15;;;9.63;;
18387;SDS011;9320;50.256;19.026;2022-10-17T11:14:36;15.27;;;10.63;;
18387;SDS011;9320;50.256;19.026;2022-10-17T11:17:11;14.13;;;9.18;;
18387;SDS011;9320;50.256;19.026;2022-10-17T11:19:49;15.52;;;9.93;;
18387;SDS011;9320;50.256;19.026;2022-10-17T11:22:26;14.70;;;9.48;;
18387;SDS011;9320;50.256;19.026;2022-10-17T11:24:59;15.18;;;9.85;;
18387;SDS011;9320;50.256;19.026;2022-10-17T11:27:31;12.50;;;8.80;;
18387;SDS011;9320;50.256;19.026;2022-10-17T11:30:00;12.35;;;9.25;;
18387;SDS011;9320;50.256;19.026;2022-10-17T11:32:30;15.20;;;8.90;;
18387;SDS011;9320;50.256;19.026;2022-10-17T11:35:04;12.43;;;8.82;;
18387;SDS011;9320;50.256;19.026;2022-10-17T11:37:42;12.35;;;9.07;;
18387;SDS011;9320;50.256;19.026;2022-10-17T11:40:18;15.48;;;8.93;;
18387;SDS011;9320;50.256;19.026;2022-10-17T11:42:51;16.52;;;9.40;;
18387;SDS011;9320;50.256;19.026;2022-10-17T11:45:24;20.17;;;9.52;;
18387;SDS011;9320;50.256;19.026;2022-10-17T11:47:57;16.27;;;9.65;;
18387;SDS011;9320;50.256;19.026;2022-10-17T11:50:29;11.75;;;9.18;;
18387;SDS011;9320;50.256;19.026;2022-10-17T11:53:19;10.75;;;8.80;;
18387;SDS011;9320;50.256;19.026;2022-10-17T11:55:50;14.23;;;9.05;;
18387;SDS011;9320;50.256;19.026;2022-10-17T11:58:25;10.63;;;8.35;;
18387;SDS011;9320;50.256;19.026;2022-10-17T12:01:02;11.63;;;8.43;;
18387;SDS011;9320;50.256;19.026;2022-10-17T12:03:43;16.23;;;9.30;;
18387;SDS011;9320;50.256;19.026;2022-10-17T12:06:21;11.93;;;8.50;;
18387;SDS011;9320;50.256;19.026;2022-10-17T12:08:59;10.52;;;8.27;;
18387;SDS011;9320;50.256;19.026;2022-10-17T12:11:41;14.13;;;9.43;;
18387;SDS011;9320;50.256;19.026;2022-10-17T12:17:30;14.43;;;9.02;;
18387;SDS011;9320;50.256;19.026;2022-10-17T12:22:53;13.13;;;8.80;;
18387;SDS011;9320;50.256;19.026;2022-10-17T12:25:24;12.57;;;8.60;;
18387;SDS011;9320;50.256;19.026;2022-10-17T12:28:06;13.88;;;8.88;;
18387;SDS011;9320;50.256;19.026;2022-10-17T12:30:52;13.25;;;8.20;;
18387;SDS011;9320;50.256;19.026;2022-10-17T12:33:25;12.13;;;8.82;;
18387;SDS011;9320;50.256;19.026;2022-10-17T12:42:32;14.27;;;9.02;;
18387;SDS011;9320;50.256;19.026;2022-10-17T12:51:22;14.60;;;9.35;;
18387;SDS011;9320;50.256;19.026;2022-10-17T12:54:08;12.60;;;8.63;;
18387;SDS011;9320;50.256;19.026;2022-10-17T12:56:38;12.88;;;9.02;;
18387;SDS011;9320;50.256;19.026;2022-10-17T12:59:10;15.77;;;9.18;;
18387;SDS011;9320;50.256;19.026;2022-10-17T13:01:44;14.73;;;9.10;;
18387;SDS011;9320;50.256;19.026;2022-10-17T13:04:14;13.10;;;8.45;;
18387;SDS011;9320;50.256;19.026;2022-10-17T13:06:44;12.63;;;8.80;;
18387;SDS011;9320;50.256;19.026;2022-10-17T13:09:16;12.63;;;9.00;;
18387;SDS011;9320;50.256;19.026;2022-10-17T13:11:50;12.75;;;9.38;;
18387;SDS011;9320;50.256;19.026;2022-10-17T13:14:19;14.30;;;8.57;;
18387;SDS011;9320;50.256;19.026;2022-10-17T13:16:51;14.95;;;9.02;;
18387;SDS011;9320;50.256;19.026;2022-10-17T13:19:21;14.93;;;8.68;;
18387;SDS011;9320;50.256;19.026;2022-10-17T13:21:51;14.95;;;8.85;;
18387;SDS011;9320;50.256;19.026;2022-10-17T13:24:22;13.38;;;8.30;;
18387;SDS011;9320;50.256;19.026;2022-10-17T13:26:55;12.40;;;8.38;;
18387;SDS011;9320;50.256;19.026;2022-10-17T13:29:24;16.05;;;8.70;;
18387;SDS011;9320;50.256;19.026;2022-10-17T13:31:57;14.60;;;7.57;;
18387;SDS011;9320;50.256;19.026;2022-10-17T13:34:30;17.33;;;8.40;;
18387;SDS011;9320;50.256;19.026;2022-10-17T13:37:00;12.32;;;8.73;;
18387;SDS011;9320;50.256;19.026;2022-10-17T13:39:32;14.02;;;8.88;;
18387;SDS011;9320;50.256;19.026;2022-10-17T13:42:21;13.23;;;8.50;;
18387;SDS011;9320;50.256;19.026;2022-10-17T13:44:51;11.80;;;7.65;;
18387;SDS011;9320;50.256;19.026;2022-10-17T13:47:21;10.00;;;6.97;;
18387;SDS011;9320;50.256;19.026;2022-10-17T13:49:50;12.30;;;7.65;;
18387;SDS011;9320;50.256;19.026;2022-10-17T13:52:21;9.90;;;7.53;;
18387;SDS011;9320;50.256;19.026;2022-10-17T13:54:51;11.25;;;7.53;;
18387;SDS011;9320;50.256;19.026;2022-10-17T13:57:20;13.52;;;8.45;;
18387;SDS011;9320;50.256;19.026;2022-10-17T13:59:52;11.18;;;7.88;;
18387;SDS011;9320;50.256;19.026;2022-10-17T14:02:25;9.90;;;7.53;;
18387;SDS011;9320;50.256;19.026;2022-10-17T14:04:58;10.50;;;7.10;;
18387;SDS011;9320;50.256;19.026;2022-10-17T14:07:43;13.77;;;7.50;;
18387;SDS011;9320;50.256;19.026;2022-10-17T14:10:36;11.63;;;8.20;;
18387;SDS011;9320;50.256;19.026;2022-10-17T14:13:18;10.75;;;7.93;;
18387;SDS011;9320;50.256;19.026;2022-10-17T14:15:48;12.13;;;7.28;;
18387;SDS011;9320;50.256;19.026;2022-10-17T14:18:19;10.20;;;7.15;;
18387;SDS011;9320;50.256;19.026;2022-10-17T14:20:51;12.57;;;7.40;;
18387;SDS011;9320;50.256;19.026;2022-10-17T14:23:40;11.80;;;6.63;;
18387;SDS011;9320;50.256;19.026;2022-10-17T14:26:11;10.10;;;7.28;;
18387;SDS011;9320;50.256;19.026;2022-10-17T14:28:42;9.30;;;6.82;;
18387;SDS011;9320;50.256;19.026;2022-10-17T14:31:17;9.15;;;7.18;;
18387;SDS011;9320;50.256;19.026;2022-10-17T14:33:58;9.90;;;7.55;;
18387;SDS011;9320;50.256;19.026;2022-10-17T14:36:32;14.77;;;7.65;;
18387;SDS011;9320;50.256;19.026;2022-10-17T14:39:02;9.75;;;6.78;;
18387;SDS011;9320;50.256;19.026;2022-10-17T14:41:38;14.25;;;8.55;;
18387;SDS011;9320;50.256;19.026;2022-10-17T14:47:02;14.05;;;8.40;;
18387;SDS011;9320;50.256;19.026;2022-10-17T14:50:03;15.25;;;8.48;;
18387;SDS011;9320;50.256;19.026;2022-10-17T14:52:33;14.25;;;7.80;;
18387;SDS011;9320;50.256;19.026;2022-10-17T14:55:12;15.25;;;8.32;;
18387;SDS011;9320;50.256;19.026;2022-10-17T14:57:48;12.70;;;8.20;;
18387;SDS011;9320;50.256;19.026;2022-10-17T15:00:17;11.18;;;7.65;;
18387;SDS011;9320;50.256;19.026;2022-10-17T15:02:46;11.93;;;7.55;;
18387;SDS011;9320;50.256;19.026;2022-10-17T15:05:17;10.98;;;7.03;;
18387;SDS011;9320;50.256;19.026;2022-10-17T15:07:46;11.15;;;7.05;;
18387;SDS011;9320;50.256;19.026;2022-10-17T15:10:24;11.73;;;7.32;;
18387;SDS011;9320;50.256;19.026;2022-10-17T15:12:57;9.80;;;6.40;;
18387;SDS011;9320;50.256;19.026;2022-10-17T15:15:46;11.40;;;7.07;;
18387;SDS011;9320;50.256;19.026;2022-10-17T15:18:17;11.52;;;7.68;;
18387;SDS011;9320;50.256;19.026;2022-10-17T15:20:47;12.85;;;8.07;;
18387;SDS011;9320;50.256;19.026;2022-10-17T15:23:30;11.95;;;7.35;;
18387;SDS011;9320;50.256;19.026;2022-10-17T15:25:58;9.45;;;6.78;;
18387;SDS011;9320;50.256;19.026;2022-10-17T15:28:26;9.48;;;6.68;;
18387;SDS011;9320;50.256;19.026;2022-10-17T15:30:54;8.93;;;7.07;;
18387;SDS011;9320;50.256;19.026;2022-10-17T15:33:22;10.63;;;7.13;;